sensor_id;sensor_type;location;lat;lon;timestamp;pressure;altitude;pressure_sealevel;temperature;humidity
70841;BME280;58465;51.534;9.934;2023-02-23T00:01:49;99575.41;;;10.56;72.56
70841;BME280;58465;51.534;9.934;2023-02-23T00:04:14;99579.03;;;10.54;72.54
70841;BME280;58465;51.534;9.934;2023-02-23T00:06:42;99572.13;;;10.47;72.76
70841;BME280;58465;51.534;9.934;2023-02-23T00:09:09;99578.38;;;10.46;72.92
70841;BME280;58465;51.534;9.934;2023-02-23T00:11:46;99579.41;;;10.40;72.64
70841;BME280;58465;51.534;9.934;2023-02-23T00:14:11;99576.91;;;10.35;73.19
70841;BME280;58465;51.534;9.934;2023-02-23T00:16:37;99582.28;;;10.34;73.16
70841;BME280;58465;51.534;9.934;2023-02-23T00:19:02;99580.53;;;10.33;73.06
70841;BME280;58465;51.534;9.934;2023-02-23T00:21:32;99586.03;;;10.28;73.32
70841;BME280;58465;51.534;9.934;2023-02-23T00:24:04;99582.41;;;10.29;73.07
70841;BME280;58465;51.534;9.934;2023-02-23T00:26:31;99584.31;;;10.26;73.23
70841;BME280;58465;51.534;9.934;2023-02-23T00:29:00;99579.00;;;10.24;73.58
70841;BME280;58465;51.534;9.934;2023-02-23T00:31:26;99569.25;;;10.23;73.16
70841;BME280;58465;51.534;9.934;2023-02-23T00:33:53;99566.63;;;10.22;72.95
70841;BME280;58465;51.534;9.934;2023-02-23T00:36:21;99571.06;;;10.21;73.32
70841;BME280;58465;51.534;9.934;2023-02-23T00:38:47;99578.19;;;10.21;73.31
70841;BME280;58465;51.534;9.934;2023-02-23T00:41:17;99572.06;;;10.19;73.30
70841;BME280;58465;51.534;9.934;2023-02-23T00:43:45;99577.31;;;10.20;73.30
70841;BME280;58465;51.534;9.934;2023-02-23T00:46:15;99581.66;;;10.24;73.04
70841;BME280;58465;51.534;9.934;2023-02-23T00:48:41;99579.97;;;10.22;73.15
70841;BME280;58465;51.534;9.934;2023-02-23T00:51:07;99582.50;;;10.26;72.93
70841;BME280;58465;51.534;9.934;2023-02-23T00:53:32;99580.69;;;10.28;73.19
70841;BME280;58465;51.534;9.934;2023-02-23T00:55:58;99586.88;;;10.29;73.11
70841;BME280;58465;51.534;9.934;2023-02-23T00:58:25;99583.44;;;10.25;73.22
70841;BME280;58465;51.534;9.934;2023-02-23T01:00:50;99580.06;;;10.17;73.40
70841;BME280;58465;51.534;9.934;2023-02-23T01:03:16;99582.78;;;10.16;73.66
70841;BME280;58465;51.534;9.934;2023-02-23T01:05:41;99583.03;;;10.07;73.93
70841;BME280;58465;51.534;9.934;2023-02-23T01:08:08;99585.91;;;9.99;73.93
70841;BME280;58465;51.534;9.934;2023-02-23T01:10:39;99581.47;;;9.99;73.94
70841;BME280;58465;51.534;9.934;2023-02-23T01:13:06;99589.47;;;9.99;73.72
70841;BME280;58465;51.534;9.934;2023-02-23T01:15:32;99597.53;;;9.96;73.52
70841;BME280;58465;51.534;9.934;2023-02-23T01:17:57;99594.97;;;9.92;73.29
70841;BME280;58465;51.534;9.934;2023-02-23T01:20:23;99591.53;;;9.88;73.53
70841;BME280;58465;51.534;9.934;2023-02-23T01:22:49;99590.81;;;9.82;73.54
70841;BME280;58465;51.534;9.934;2023-02-23T01:25:16;99599.72;;;9.81;73.66
70841;BME280;58465;51.534;9.934;2023-02-23T01:27:42;99595.34;;;9.80;73.89
70841;BME280;58465;51.534;9.934;2023-02-23T01:30:12;99597.06;;;9.81;73.92
70841;BME280;58465;51.534;9.934;2023-02-23T01:32:39;99601.47;;;9.82;73.90
70841;BME280;58465;51.534;9.934;2023-02-23T01:35:06;99600.56;;;9.83;74.03
70841;BME280;58465;51.534;9.934;2023-02-23T01:37:40;99592.53;;;9.84;73.67
70841;BME280;58465;51.534;9.934;2023-02-23T01:40:15;99596.09;;;9.83;73.68
70841;BME280;58465;51.534;9.934;2023-02-23T01:42:53;99602.19;;;9.90;73.87
70841;BME280;58465;51.534;9.934;2023-02-23T01:45:31;99600.25;;;9.95;73.72
70841;BME280;58465;51.534;9.934;2023-02-23T01:48:02;99597.31;;;10.04;73.41
70841;BME280;58465;51.534;9.934;2023-02-23T01:50:35;99594.47;;;10.10;73.20
70841;BME280;58465;51.534;9.934;2023-02-23T01:53:01;99595.19;;;10.18;72.92
70841;BME280;58465;51.534;9.934;2023-02-23T01:55:27;99595.00;;;10.24;72.62
70841;BME280;58465;51.534;9.934;2023-02-23T01:57:59;99589.66;;;10.26;72.41
70841;BME280;58465;51.534;9.934;2023-02-23T02:00:27;99590.41;;;10.29;72.44
70841;BME280;58465;51.534;9.934;2023-02-23T02:02:52;99590.38;;;10.31;72.26
70841;BME280;58465;51.534;9.934;2023-02-23T02:05:19;99584.16;;;10.30;72.11
70841;BME280;58465;51.534;9.934;2023-02-23T02:07:46;99587.81;;;10.28;72.09
70841;BME280;58465;51.534;9.934;2023-02-23T02:10:12;99581.84;;;10.18;72.30
70841;BME280;58465;51.534;9.934;2023-02-23T02:12:39;99584.53;;;10.17;72.19
70841;BME280;58465;51.534;9.934;2023-02-23T02:15:06;99587.19;;;10.18;72.26
70841;BME280;58465;51.534;9.934;2023-02-23T02:40:25;99572.69;;;10.28;72.02
70841;BME280;58465;51.534;9.934;2023-02-23T02:45:36;99567.44;;;10.24;72.39
70841;BME280;58465;51.534;9.934;2023-02-23T02:48:54;99567.50;;;10.22;72.48
70841;BME280;58465;51.534;9.934;2023-02-23T02:51:02;99568.41;;;10.21;72.43
70841;BME280;58465;51.534;9.934;2023-02-23T02:53:42;99572.91;;;10.19;72.51
70841;BME280;58465;51.534;9.934;2023-02-23T02:56:10;99572.09;;;10.16;72.92
70841;BME280;58465;51.534;9.934;2023-02-23T02:58:36;99572.06;;;10.17;72.92
70841;BME280;58465;51.534;9.934;2023-02-23T03:01:08;99564.06;;;10.17;72.81
70841;BME280;58465;51.534;9.934;2023-02-23T03:03:54;99561.38;;;10.17;72.85
70841;BME280;58465;51.534;9.934;2023-02-23T03:06:58;99561.38;;;10.17;73.01
70841;BME280;58465;51.534;9.934;2023-02-23T03:09:52;99556.09;;;10.16;73.22
70841;BME280;58465;51.534;9.934;2023-02-23T03:12:54;99563.25;;;10.14;73.34
70841;BME280;58465;51.534;9.934;2023-02-23T03:15:53;99568.41;;;10.21;73.05
70841;BME280;58465;51.534;9.934;2023-02-23T03:19:19;99569.28;;;10.22;72.96
70841;BME280;58465;51.534;9.934;2023-02-23T03:25:14;99564.06;;;10.17;72.80
70841;BME280;58465;51.534;9.934;2023-02-23T03:28:20;99569.44;;;10.16;72.64
70841;BME280;58465;51.534;9.934;2023-02-23T03:31:25;99563.28;;;10.12;72.81
70841;BME280;58465;51.534;9.934;2023-02-23T03:34:32;99566.88;;;10.11;72.95
70841;BME280;58465;51.534;9.934;2023-02-23T03:37:21;99572.41;;;10.05;72.94
70841;BME280;58465;51.534;9.934;2023-02-23T03:40:17;99568.91;;;10.03;72.80
70841;BME280;58465;51.534;9.934;2023-02-23T03:43:05;99567.91;;;10.07;73.08
70841;BME280;58465;51.534;9.934;2023-02-23T03:45:52;99570.84;;;9.98;73.38
70841;BME280;58465;51.534;9.934;2023-02-23T03:48:38;99578.56;;;10.07;73.07
70841;BME280;58465;51.534;9.934;2023-02-23T03:51:25;99574.09;;;10.09;72.71
70841;BME280;58465;51.534;9.934;2023-02-23T03:54:16;99578.66;;;10.04;72.57
70841;BME280;58465;51.534;9.934;2023-02-23T03:57:04;99573.53;;;9.96;72.70
70841;BME280;58465;51.534;9.934;2023-02-23T03:59:56;99568.50;;;9.86;73.10
70841;BME280;58465;51.534;9.934;2023-02-23T04:02:44;99574.88;;;9.80;73.50
70841;BME280;58465;51.534;9.934;2023-02-23T04:05:31;99573.31;;;9.72;73.65
70841;BME280;58465;51.534;9.934;2023-02-23T04:08:18;99567.97;;;9.72;73.51
70841;BME280;58465;51.534;9.934;2023-02-23T04:14:38;99573.31;;;9.72;73.58
70841;BME280;58465;51.534;9.934;2023-02-23T04:17:06;99571.50;;;9.72;73.63
70841;BME280;58465;51.534;9.934;2023-02-23T04:19:32;99574.25;;;9.71;73.62
70841;BME280;58465;51.534;9.934;2023-02-23T04:21:57;99569.81;;;9.70;73.58
70841;BME280;58465;51.534;9.934;2023-02-23T04:24:22;99567.97;;;9.72;73.85
70841;BME280;58465;51.534;9.934;2023-02-23T04:26:48;99568.03;;;9.70;73.54
70841;BME280;58465;51.534;9.934;2023-02-23T04:29:13;99564.38;;;9.73;73.60
70841;BME280;58465;51.534;9.934;2023-02-23T04:31:39;99571.47;;;9.74;73.66
70841;BME280;58465;51.534;9.934;2023-02-23T04:34:05;99573.22;;;9.75;73.50
70841;BME280;58465;51.534;9.934;2023-02-23T04:36:31;99576.75;;;9.77;73.58
70841;BME280;58465;51.534;9.934;2023-02-23T04:38:56;99569.63;;;9.77;73.47
70841;BME280;58465;51.534;9.934;2023-02-23T04:41:21;99573.16;;;9.78;73.71
70841;BME280;58465;51.534;9.934;2023-02-23T04:43:47;99565.16;;;9.78;73.61
70841;BME280;58465;51.534;9.934;2023-02-23T04:46:12;99558.00;;;9.80;73.40
70841;BME280;58465;51.534;9.934;2023-02-23T04:48:37;99567.78;;;9.79;73.81
70841;BME280;58465;51.534;9.934;2023-02-23T04:51:03;99563.34;;;9.80;73.33
70841;BME280;58465;51.534;9.934;2023-02-23T04:53:28;99557.16;;;9.78;73.37
70841;BME280;58465;51.534;9.934;2023-02-23T04:55:53;99566.06;;;9.77;73.42
70841;BME280;58465;51.534;9.934;2023-02-23T04:58:19;99565.22;;;9.75;73.47
70841;BME280;58465;51.534;9.934;2023-02-23T05:00:44;99560.06;;;9.68;73.47
70841;BME280;58465;51.534;9.934;2023-02-23T05:03:09;99563.66;;;9.67;73.87
70841;BME280;58465;51.534;9.934;2023-02-23T05:05:36;99559.97;;;9.72;73.64
70841;BME280;58465;51.534;9.934;2023-02-23T05:08:01;99565.41;;;9.68;73.57
70841;BME280;58465;51.534;9.934;2023-02-23T05:10:26;99569.88;;;9.68;73.66
70841;BME280;58465;51.534;9.934;2023-02-23T05:12:53;99560.16;;;9.65;73.46
70841;BME280;58465;51.534;9.934;2023-02-23T05:15:19;99567.16;;;9.70;73.60
70841;BME280;58465;51.534;9.934;2023-02-23T05:17:44;99564.50;;;9.70;73.60
70841;BME280;58465;51.534;9.934;2023-02-23T05:20:10;99571.63;;;9.69;73.59
70841;BME280;58465;51.534;9.934;2023-02-23T05:22:36;99573.38;;;9.70;73.41
70841;BME280;58465;51.534;9.934;2023-02-23T05:25:01;99573.41;;;9.68;73.36
70841;BME280;58465;51.534;9.934;2023-02-23T05:27:28;99569.81;;;9.70;73.71
70841;BME280;58465;51.534;9.934;2023-02-23T05:29:53;99567.28;;;9.65;73.55
70841;BME280;58465;51.534;9.934;2023-02-23T05:32:19;99574.31;;;9.67;73.67
70841;BME280;58465;51.534;9.934;2023-02-23T05:34:44;99569.88;;;9.68;73.60
70841;BME280;58465;51.534;9.934;2023-02-23T05:37:09;99575.19;;;9.68;73.53
70841;BME280;58465;51.534;9.934;2023-02-23T05:39:34;99583.94;;;9.73;73.52
70841;BME280;58465;51.534;9.934;2023-02-23T05:41:59;99583.09;;;9.71;73.43
70841;BME280;58465;51.534;9.934;2023-02-23T05:44:25;99582.38;;;9.64;73.71
70841;BME280;58465;51.534;9.934;2023-02-23T05:46:50;99580.63;;;9.63;73.64
70841;BME280;58465;51.534;9.934;2023-02-23T05:49:16;99577.09;;;9.63;73.61
70841;BME280;58465;51.534;9.934;2023-02-23T05:51:41;99575.50;;;9.56;73.71
70841;BME280;58465;51.534;9.934;2023-02-23T05:54:08;99586.16;;;9.56;73.73
70841;BME280;58465;51.534;9.934;2023-02-23T05:56:33;99581.06;;;9.47;73.92
70841;BME280;58465;51.534;9.934;2023-02-23T05:58:58;99583.97;;;9.38;74.22
70841;BME280;58465;51.534;9.934;2023-02-23T06:01:25;99576.06;;;9.33;74.24
70841;BME280;58465;51.534;9.934;2023-02-23T06:03:51;99579.78;;;9.27;74.67
70841;BME280;58465;51.534;9.934;2023-02-23T06:06:22;99579.94;;;9.21;74.66
70841;BME280;58465;51.534;9.934;2023-02-23T06:08:51;99570.16;;;9.22;74.60
70841;BME280;58465;51.534;9.934;2023-02-23T06:11:16;99581.56;;;9.27;74.41
70841;BME280;58465;51.534;9.934;2023-02-23T06:13:44;99582.34;;;9.32;74.57
70841;BME280;58465;51.534;9.934;2023-02-23T06:16:12;99583.13;;;9.36;74.56
70841;BME280;58465;51.534;9.934;2023-02-23T06:18:37;99584.81;;;9.40;74.66
70841;BME280;58465;51.534;9.934;2023-02-23T06:21:03;99585.50;;;9.48;74.33
70841;BME280;58465;51.534;9.934;2023-02-23T06:23:29;99584.31;;;9.59;74.26
70841;BME280;58465;51.534;9.934;2023-02-23T06:25:55;99583.22;;;9.66;73.85
70841;BME280;58465;51.534;9.934;2023-02-23T06:28:21;99587.47;;;9.74;73.60
70841;BME280;58465;51.534;9.934;2023-02-23T06:30:46;99587.22;;;9.83;73.51
70841;BME280;58465;51.534;9.934;2023-02-23T06:33:12;99587.97;;;9.89;73.22
70841;BME280;58465;51.534;9.934;2023-02-23T06:35:38;99594.94;;;9.93;72.94
70841;BME280;58465;51.534;9.934;2023-02-23T06:38:03;99594.91;;;9.95;72.95
70841;BME280;58465;51.534;9.934;2023-02-23T06:40:29;99593.16;;;9.94;72.79
70841;BME280;58465;51.534;9.934;2023-02-23T06:42:55;99599.41;;;9.93;72.80
70841;BME280;58465;51.534;9.934;2023-02-23T06:45:20;99597.53;;;9.96;72.87
70841;BME280;58465;51.534;9.934;2023-02-23T06:47:46;99602.84;;;9.98;73.02
70841;BME280;58465;51.534;9.934;2023-02-23T06:50:12;99608.94;;;10.01;72.85
70841;BME280;58465;51.534;9.934;2023-02-23T06:52:37;99611.53;;;10.04;72.55
70841;BME280;58465;51.534;9.934;2023-02-23T06:55:03;99604.34;;;10.08;72.61
70841;BME280;58465;51.534;9.934;2023-02-23T06:57:28;99605.34;;;10.04;72.35
70841;BME280;58465;51.534;9.934;2023-02-23T06:59:54;99623.22;;;10.00;72.53
70841;BME280;58465;51.534;9.934;2023-02-23T07:02:19;99620.53;;;10.00;72.72
70841;BME280;58465;51.534;9.934;2023-02-23T07:04:44;99624.25;;;9.95;72.56
70841;BME280;58465;51.534;9.934;2023-02-23T07:07:10;99626.00;;;9.96;72.65
70841;BME280;58465;51.534;9.934;2023-02-23T07:09:38;99626.63;;;10.05;72.58
70841;BME280;58465;51.534;9.934;2023-02-23T07:12:04;99630.13;;;10.09;72.55
70841;BME280;58465;51.534;9.934;2023-02-23T07:14:29;99628.44;;;10.05;72.46
70841;BME280;58465;51.534;9.934;2023-02-23T07:16:55;99628.25;;;10.11;72.51
70841;BME280;58465;51.534;9.934;2023-02-23T07:19:20;99637.94;;;10.15;72.24
70841;BME280;58465;51.534;9.934;2023-02-23T07:21:45;99633.44;;;10.19;71.74
70841;BME280;58465;51.534;9.934;2023-02-23T07:24:11;99636.88;;;10.22;71.65
70841;BME280;58465;51.534;9.934;2023-02-23T07:26:36;99640.34;;;10.26;71.57
70841;BME280;58465;51.534;9.934;2023-02-23T07:29:05;99641.13;;;10.29;71.62
70841;BME280;58465;51.534;9.934;2023-02-23T07:31:30;99643.72;;;10.32;71.41
70841;BME280;58465;51.534;9.934;2023-02-23T07:33:55;99643.63;;;10.35;71.50
70841;BME280;58465;51.534;9.934;2023-02-23T07:36:21;99639.13;;;10.37;71.35
70841;BME280;58465;51.534;9.934;2023-02-23T07:38:47;99640.78;;;10.41;71.60
70841;BME280;58465;51.534;9.934;2023-02-23T07:41:12;99650.78;;;10.35;71.62
70841;BME280;58465;51.534;9.934;2023-02-23T07:43:37;99645.25;;;10.41;71.41
70841;BME280;58465;51.534;9.934;2023-02-23T07:46:03;99640.78;;;10.41;71.79
70841;BME280;58465;51.534;9.934;2023-02-23T07:48:28;99645.25;;;10.41;71.75
70841;BME280;58465;51.534;9.934;2023-02-23T07:50:53;99640.94;;;10.37;71.84
70841;BME280;58465;51.534;9.934;2023-02-23T07:53:19;99634.69;;;10.38;71.84
70841;BME280;58465;51.534;9.934;2023-02-23T07:55:44;99646.97;;;10.44;72.04
70841;BME280;58465;51.534;9.934;2023-02-23T07:58:10;99644.94;;;10.52;71.49
70841;BME280;58465;51.534;9.934;2023-02-23T08:00:37;99644.16;;;10.48;71.59
70841;BME280;58465;51.534;9.934;2023-02-23T08:03:04;99648.03;;;10.38;72.14
70841;BME280;58465;51.534;9.934;2023-02-23T08:05:29;99649.59;;;10.45;72.00
70841;BME280;58465;51.534;9.934;2023-02-23T08:07:54;99659.22;;;10.51;72.12
70841;BME280;58465;51.534;9.934;2023-02-23T08:10:21;99645.91;;;10.49;72.03
70841;BME280;58465;51.534;9.934;2023-02-23T08:12:47;99653.75;;;10.55;72.15
70841;BME280;58465;51.534;9.934;2023-02-23T08:15:12;99649.19;;;10.59;71.99
70841;BME280;58465;51.534;9.934;2023-02-23T08:17:38;99655.25;;;10.65;71.66
70841;BME280;58465;51.534;9.934;2023-02-23T08:20:05;99647.16;;;10.67;71.60
70841;BME280;58465;51.534;9.934;2023-02-23T08:22:30;99657.13;;;10.62;71.67
70841;BME280;58465;51.534;9.934;2023-02-23T08:24:55;99651.78;;;10.62;71.68
70841;BME280;58465;51.534;9.934;2023-02-23T08:27:21;99659.56;;;10.69;71.67
70841;BME280;58465;51.534;9.934;2023-02-23T08:29:47;99662.88;;;10.77;71.37
70841;BME280;58465;51.534;9.934;2023-02-23T08:32:12;99665.47;;;10.81;71.53
70841;BME280;58465;51.534;9.934;2023-02-23T08:34:41;99667.06;;;10.86;71.42
70841;BME280;58465;51.534;9.934;2023-02-23T08:37:07;99662.00;;;10.77;71.91
70841;BME280;58465;51.534;9.934;2023-02-23T08:39:33;99668.06;;;10.84;71.57
70841;BME280;58465;51.534;9.934;2023-02-23T08:41:58;99670.50;;;10.91;71.82
70841;BME280;58465;51.534;9.934;2023-02-23T08:44:24;99667.75;;;10.94;71.54
70841;BME280;58465;51.534;9.934;2023-02-23T08:46:49;99667.81;;;10.91;70.97
70841;BME280;58465;51.534;9.934;2023-02-23T08:49:15;99662.59;;;10.87;71.27
70841;BME280;58465;51.534;9.934;2023-02-23T08:51:41;99659.06;;;10.86;71.36
70841;BME280;58465;51.534;9.934;2023-02-23T08:54:07;99672.25;;;10.92;71.56
70841;BME280;58465;51.534;9.934;2023-02-23T08:56:38;99672.25;;;10.92;71.16
70841;BME280;58465;51.534;9.934;2023-02-23T08:59:04;99668.75;;;10.90;71.89
70841;BME280;58465;51.534;9.934;2023-02-23T09:01:29;99676.72;;;10.92;71.98
70841;BME280;58465;51.534;9.934;2023-02-23T09:03:54;99671.19;;;10.98;71.99
70841;BME280;58465;51.534;9.934;2023-02-23T09:06:21;99672.03;;;11.00;71.92
70841;BME280;58465;51.534;9.934;2023-02-23T09:08:47;99671.22;;;10.96;72.49
70841;BME280;58465;51.534;9.934;2023-02-23T09:11:13;99682.78;;;10.97;72.70
70841;BME280;58465;51.534;9.934;2023-02-23T09:13:39;99681.03;;;10.96;72.99
70841;BME280;58465;51.534;9.934;2023-02-23T09:16:05;99685.84;;;10.85;73.52
70841;BME280;58465;51.534;9.934;2023-02-23T09:18:31;99682.28;;;10.84;73.35
70841;BME280;58465;51.534;9.934;2023-02-23T09:20:57;99678.75;;;10.84;73.62
70841;BME280;58465;51.534;9.934;2023-02-23T09:23:22;99676.19;;;10.79;73.50
70841;BME280;58465;51.534;9.934;2023-02-23T09:25:48;99684.81;;;10.89;73.25
70841;BME280;58465;51.534;9.934;2023-02-23T09:28:16;99687.31;;;10.95;73.25
70841;BME280;58465;51.534;9.934;2023-02-23T09:30:43;99690.72;;;11.00;72.85
70841;BME280;58465;51.534;9.934;2023-02-23T09:33:09;99688.81;;;11.05;72.90
70841;BME280;58465;51.534;9.934;2023-02-23T09:35:34;99692.16;;;11.11;72.71
70841;BME280;58465;51.534;9.934;2023-02-23T09:38:01;99695.75;;;11.10;72.69
70841;BME280;58465;51.534;9.934;2023-02-23T09:40:34;99690.50;;;11.07;72.78
70841;BME280;58465;51.534;9.934;2023-02-23T09:43:25;99693.13;;;11.09;73.21
70841;BME280;58465;51.534;9.934;2023-02-23T09:48:45;99693.16;;;11.07;73.82
70841;BME280;58465;51.534;9.934;2023-02-23T09:51:16;99693.06;;;11.10;73.58
70841;BME280;58465;51.534;9.934;2023-02-23T09:53:47;99697.53;;;11.10;73.47
70841;BME280;58465;51.534;9.934;2023-02-23T09:58:53;99692.72;;;11.23;74.08
70841;BME280;58465;51.534;9.934;2023-02-23T10:06:21;99691.78;;;11.24;73.09
70841;BME280;58465;51.534;9.934;2023-02-23T10:09:07;99697.59;;;11.08;73.94
70841;BME280;58465;51.534;9.934;2023-02-23T10:17:19;99702.22;;;10.72;76.26
70841;BME280;58465;51.534;9.934;2023-02-23T10:19:54;99699.59;;;10.71;76.60
70841;BME280;58465;51.534;9.934;2023-02-23T10:22:21;99706.47;;;10.79;76.11
70841;BME280;58465;51.534;9.934;2023-02-23T10:24:54;99703.88;;;10.76;76.41
70841;BME280;58465;51.534;9.934;2023-02-23T10:27:23;99699.41;;;10.77;76.56
70841;BME280;58465;51.534;9.934;2023-02-23T10:29:54;99702.75;;;10.85;76.88
70841;BME280;58465;51.534;9.934;2023-02-23T10:32:51;99703.41;;;10.93;76.64
70841;BME280;58465;51.534;9.934;2023-02-23T10:35:20;99700.63;;;10.96;76.64
70841;BME280;58465;51.534;9.934;2023-02-23T10:37:50;99704.13;;;10.98;76.70
70841;BME280;58465;51.534;9.934;2023-02-23T10:40:25;99707.56;;;11.03;76.46
70841;BME280;58465;51.534;9.934;2023-02-23T10:42:53;99702.97;;;11.07;76.54
70841;BME280;58465;51.534;9.934;2023-02-23T10:45:25;99706.63;;;11.04;76.31
70841;BME280;58465;51.534;9.934;2023-02-23T10:48:04;99713.81;;;11.02;76.40
70841;BME280;58465;51.534;9.934;2023-02-23T10:50:35;99714.94;;;10.95;76.46
70841;BME280;58465;51.534;9.934;2023-02-23T10:53:25;99717.69;;;10.92;76.83
70841;BME280;58465;51.534;9.934;2023-02-23T10:56:10;99712.50;;;10.86;76.77
70841;BME280;58465;51.534;9.934;2023-02-23T10:58:42;99706.03;;;10.95;76.68
70841;BME280;58465;51.534;9.934;2023-02-23T11:01:09;99706.72;;;11.01;76.66
70841;BME280;58465;51.534;9.934;2023-02-23T11:06:03;99712.38;;;11.20;76.10
70841;BME280;58465;51.534;9.934;2023-02-23T11:08:36;99704.56;;;11.14;76.41
70841;BME280;58465;51.534;9.934;2023-02-23T11:13:49;99703.50;;;11.20;76.07
70841;BME280;58465;51.534;9.934;2023-02-23T11:16:20;99707.63;;;11.30;76.28
70841;BME280;58465;51.534;9.934;2023-02-23T11:18:57;99694.06;;;11.36;75.93
70841;BME280;58465;51.534;9.934;2023-02-23T11:21:26;99696.16;;;11.26;75.58
70841;BME280;58465;51.534;9.934;2023-02-23T11:23:56;99692.13;;;11.41;75.66
70841;BME280;58465;51.534;9.934;2023-02-23T11:26:36;99692.22;;;11.38;75.22
70841;BME280;58465;51.534;9.934;2023-02-23T11:29:26;99680.56;;;11.40;75.50
70841;BME280;58465;51.534;9.934;2023-02-23T11:31:55;99678.81;;;11.39;75.63
70841;BME280;58465;51.534;9.934;2023-02-23T11:34:31;99679.69;;;11.40;75.62
70841;BME280;58465;51.534;9.934;2023-02-23T11:36:59;99668.06;;;11.41;75.61
70841;BME280;58465;51.534;9.934;2023-02-23T11:39:25;99673.88;;;11.53;75.51
70841;BME280;58465;51.534;9.934;2023-02-23T11:42:16;99674.31;;;11.68;75.45
70841;BME280;58465;51.534;9.934;2023-02-23T11:44:41;99673.44;;;11.67;74.98
70841;BME280;58465;51.534;9.934;2023-02-23T11:47:15;99675.75;;;11.51;75.55
70841;BME280;58465;51.534;9.934;2023-02-23T11:49:44;99670.84;;;11.38;75.75
70841;BME280;58465;51.534;9.934;2023-02-23T11:52:14;99670.00;;;11.36;76.43
70841;BME280;58465;51.534;9.934;2023-02-23T11:54:49;99672.38;;;11.45;76.07
70841;BME280;58465;51.534;9.934;2023-02-23T11:57:22;99668.91;;;11.43;76.37
70841;BME280;58465;51.534;9.934;2023-02-23T11:59:48;99665.22;;;11.45;76.49
70841;BME280;58465;51.534;9.934;2023-02-23T12:02:28;99660.72;;;11.47;76.21
70841;BME280;58465;51.534;9.934;2023-02-23T12:05:08;99663.66;;;11.40;75.84
70841;BME280;58465;51.534;9.934;2023-02-23T12:07:37;99675.47;;;11.33;75.89
70841;BME280;58465;51.534;9.934;2023-02-23T12:10:25;99673.78;;;11.29;76.61
70841;BME280;58465;51.534;9.934;2023-02-23T12:13:04;99672.09;;;11.26;77.16
70841;BME280;58465;51.534;9.934;2023-02-23T12:15:40;99669.53;;;11.23;77.24
70841;BME280;58465;51.534;9.934;2023-02-23T12:20:44;99669.94;;;11.09;78.13
70841;BME280;58465;51.534;9.934;2023-02-23T12:23:16;99670.91;;;11.07;78.14
70841;BME280;58465;51.534;9.934;2023-02-23T12:25:48;99667.66;;;10.96;78.68
70841;BME280;58465;51.534;9.934;2023-02-23T12:30:55;99662.25;;;10.99;79.07
70841;BME280;58465;51.534;9.934;2023-02-23T12:33:34;99658.53;;;11.04;79.22
70841;BME280;58465;51.534;9.934;2023-02-23T12:36:10;99646.72;;;11.11;78.92
70841;BME280;58465;51.534;9.934;2023-02-23T12:38:45;99649.16;;;11.19;78.42
70841;BME280;58465;51.534;9.934;2023-02-23T12:41:19;99648.44;;;11.14;78.52
70841;BME280;58465;51.534;9.934;2023-02-23T12:43:50;99651.03;;;11.15;78.35
70841;BME280;58465;51.534;9.934;2023-02-23T12:46:20;99644.22;;;11.05;77.86
70841;BME280;58465;51.534;9.934;2023-02-23T12:49:10;99652.22;;;11.05;78.88
70841;BME280;58465;51.534;9.934;2023-02-23T12:51:42;99652.22;;;11.05;78.60
70841;BME280;58465;51.534;9.934;2023-02-23T12:54:14;99652.19;;;11.07;78.67
70841;BME280;58465;51.534;9.934;2023-02-23T13:00:03;99646.44;;;11.21;79.17
70841;BME280;58465;51.534;9.934;2023-02-23T13:02:49;99639.22;;;11.24;78.67
70841;BME280;58465;51.534;9.934;2023-02-23T13:05:24;99643.16;;;11.11;78.47
70841;BME280;58465;51.534;9.934;2023-02-23T13:15:48;99643.38;;;11.05;79.54
70841;BME280;58465;51.534;9.934;2023-02-23T13:18:28;99641.50;;;11.07;79.37
70841;BME280;58465;51.534;9.934;2023-02-23T13:24:00;99627.09;;;11.12;79.39
70841;BME280;58465;51.534;9.934;2023-02-23T13:26:41;99633.09;;;11.19;79.39
70841;BME280;58465;51.534;9.934;2023-02-23T13:29:25;99625.03;;;11.21;79.04
70841;BME280;58465;51.534;9.934;2023-02-23T13:31:57;99631.19;;;11.24;78.74
70841;BME280;58465;51.534;9.934;2023-02-23T13:34:32;99631.09;;;11.26;78.95
70841;BME280;58465;51.534;9.934;2023-02-23T13:37:02;99636.41;;;11.27;78.72
70841;BME280;58465;51.534;9.934;2023-02-23T13:39:55;99633.94;;;11.21;79.05
70841;BME280;58465;51.534;9.934;2023-02-23T13:45:40;99630.69;;;11.11;79.66
70841;BME280;58465;51.534;9.934;2023-02-23T13:48:18;99632.28;;;11.17;79.73
70841;BME280;58465;51.534;9.934;2023-02-23T13:51:03;99637.66;;;11.15;79.86
70841;BME280;58465;51.534;9.934;2023-02-23T13:56:14;99634.00;;;11.20;79.45
70841;BME280;58465;51.534;9.934;2023-02-23T13:58:59;99636.78;;;11.15;79.55
70841;BME280;58465;51.534;9.934;2023-02-23T14:01:35;99635.16;;;11.11;79.64
70841;BME280;58465;51.534;9.934;2023-02-23T14:04:07;99636.69;;;11.18;80.04
70841;BME280;58465;51.534;9.934;2023-02-23T14:06:39;99630.31;;;11.24;79.86
70841;BME280;58465;51.534;9.934;2023-02-23T14:09:20;99635.34;;;11.33;79.54
70841;BME280;58465;51.534;9.934;2023-02-23T14:12:31;99623.88;;;11.29;79.41
70841;BME280;58465;51.534;9.934;2023-02-23T14:14:42;99627.69;;;11.22;79.58
70841;BME280;58465;51.534;9.934;2023-02-23T14:22:15;99631.31;;;11.20;80.05
70841;BME280;58465;51.534;9.934;2023-02-23T14:24:42;99633.16;;;11.18;80.54
70841;BME280;58465;51.534;9.934;2023-02-23T14:27:33;99630.22;;;11.25;80.54
70841;BME280;58465;51.534;9.934;2023-02-23T14:32:46;99637.28;;;11.28;80.42
70841;BME280;58465;51.534;9.934;2023-02-23T14:38:03;99629.22;;;11.29;80.14
70841;BME280;58465;51.534;9.934;2023-02-23T14:40:37;99637.28;;;11.28;79.90
70841;BME280;58465;51.534;9.934;2023-02-23T14:46:02;99631.66;;;11.37;80.15
70841;BME280;58465;51.534;9.934;2023-02-23T14:48:30;99635.19;;;11.37;79.82
70841;BME280;58465;51.534;9.934;2023-02-23T14:51:52;99639.88;;;11.31;80.01
70841;BME280;58465;51.534;9.934;2023-02-23T14:53:58;99631.94;;;11.28;80.44
70841;BME280;58465;51.534;9.934;2023-02-23T14:56:24;99641.81;;;11.26;80.03